createdAt,value
2017-12-12T00:01:00.104Z,982.14
2017-12-12T00:02:09.059Z,982.12
2017-12-12T00:03:18.010Z,982.2
2017-12-12T00:04:27.329Z,982.29
2017-12-12T00:05:36.015Z,982.35
2017-12-12T00:06:44.702Z,982.41
2017-12-12T00:07:53.960Z,982.34
2017-12-12T00:09:02.928Z,982.46
2017-12-12T00:10:12.155Z,982.48
2017-12-12T00:11:21.364Z,982.49
2017-12-12T00:12:30.620Z,982.55
2017-12-12T00:13:39.652Z,982.57
2017-12-12T00:14:48.603Z,982.67
2017-12-12T00:15:58.086Z,982.66
2017-12-12T00:17:07.034Z,982.67
2017-12-12T00:18:15.982Z,982.73
2017-12-12T00:19:24.957Z,982.84
2017-12-12T00:20:33.912Z,982.91
2017-12-12T00:21:42.903Z,982.98
2017-12-12T00:22:52.240Z,983.06
2017-12-12T00:24:01.466Z,983.08
2017-12-12T00:25:10.727Z,983.16
2017-12-12T00:26:19.684Z,983.16
2017-12-12T00:27:29.002Z,983.2
2017-12-12T00:28:38.234Z,983.27
2017-12-12T00:29:47.457Z,983.36
2017-12-12T00:30:56.153Z,983.32
2017-12-12T00:32:05.105Z,983.43
2017-12-12T00:33:13.783Z,983.41
2017-12-12T00:34:22.996Z,983.48
2017-12-12T00:35:32.222Z,983.53
2017-12-12T00:36:40.944Z,983.61
2017-12-12T00:37:50.207Z,983.62
2017-12-12T00:38:58.893Z,983.62
2017-12-12T00:40:07.872Z,983.71
2017-12-12T00:41:16.830Z,983.77
2017-12-12T00:42:26.044Z,983.78
2017-12-12T00:43:34.730Z,983.82
2017-12-12T00:44:43.948Z,983.87
2017-12-12T00:45:52.894Z,983.88
2017-12-12T00:47:01.837Z,983.97
2017-12-12T00:48:10.783Z,983.98
2017-12-12T00:49:20.282Z,984.03
2017-12-12T00:50:29.504Z,984.1
2017-12-12T00:51:38.992Z,984.06
2017-12-12T00:52:48.282Z,984.15
2017-12-12T00:53:57.531Z,984.19
2017-12-12T00:55:06.802Z,984.24
2017-12-12T00:56:15.766Z,984.3
2017-12-12T00:57:24.744Z,984.33
2017-12-12T00:58:33.454Z,984.35
2017-12-12T00:59:42.684Z,984.49
2017-12-12T01:00:51.893Z,984.44
2017-12-12T01:02:01.138Z,984.52
2017-12-12T01:03:10.348Z,984.5
2017-12-12T01:04:19.559Z,984.62
2017-12-12T01:05:29.056Z,984.68
2017-12-12T01:06:38.269Z,984.7
2017-12-12T01:07:47.231Z,984.77
2017-12-12T01:08:56.202Z,984.81
2017-12-12T01:10:05.434Z,984.88
2017-12-12T01:11:14.387Z,984.9
2017-12-12T01:12:23.075Z,984.93
2017-12-12T01:13:32.035Z,984.96
2017-12-12T01:14:41.248Z,985.03
2017-12-12T01:15:50.218Z,985.07
2017-12-12T01:16:59.170Z,985.12
2017-12-12T01:18:08.386Z,985.15
2017-12-12T01:19:17.622Z,985.14
2017-12-12T01:20:26.307Z,985.2
2017-12-12T01:21:35.787Z,985.25
2017-12-12T01:22:45.288Z,985.34
2017-12-12T01:23:53.986Z,985.38
2017-12-12T01:25:03.203Z,985.41
2017-12-12T01:26:11.934Z,985.47
2017-12-12T01:27:21.407Z,985.56
2017-12-12T01:28:30.454Z,985.63
2017-12-12T01:29:39.446Z,985.71
2017-12-12T01:30:48.946Z,985.73
2017-12-12T01:31:58.689Z,985.83
2017-12-12T01:33:07.386Z,985.88
2017-12-12T01:34:16.341Z,985.91
2017-12-12T01:35:25.557Z,985.95
2017-12-12T01:36:34.248Z,985.98
2017-12-12T01:37:42.961Z,986.06
2017-12-12T01:38:52.173Z,986.1
2017-12-12T01:40:01.379Z,986.09
2017-12-12T01:41:11.122Z,986.21
2017-12-12T01:42:19.854Z,986.2
2017-12-12T01:43:29.366Z,986.21
2017-12-12T01:44:38.583Z,986.25
2017-12-12T01:45:47.566Z,986.3
2017-12-12T01:46:57.041Z,986.33
2017-12-12T01:48:06.037Z,986.35
2017-12-12T01:49:15.242Z,986.38
2017-12-12T01:50:24.457Z,986.43
2017-12-12T01:51:33.414Z,986.48
2017-12-12T01:52:42.633Z,986.5
2017-12-12T01:53:51.626Z,986.52
2017-12-12T01:55:00.325Z,986.55
2017-12-12T01:56:09.571Z,986.65
2017-12-12T01:57:19.067Z,986.68
2017-12-12T01:58:28.016Z,986.71
2017-12-12T01:59:37.238Z,986.76
2017-12-12T02:00:46.440Z,986.77
2017-12-12T02:01:55.138Z,986.89
2017-12-12T02:03:04.088Z,986.95
2017-12-12T02:04:13.094Z,986.97
2017-12-12T02:05:22.060Z,987.01
2017-12-12T02:06:30.743Z,987.09
2017-12-12T02:07:39.947Z,987.14
2017-12-12T02:08:49.457Z,987.18
2017-12-12T02:09:58.928Z,987.25
2017-12-12T02:11:07.958Z,987.31
2017-12-12T02:12:17.257Z,987.35
2017-12-12T02:13:26.464Z,987.45
2017-12-12T02:14:35.414Z,987.54
2017-12-12T02:15:44.387Z,987.56
2017-12-12T02:16:53.884Z,987.62
2017-12-12T02:18:02.851Z,987.66
2017-12-12T02:19:12.058Z,987.73
2017-12-12T02:20:20.998Z,987.68
2017-12-12T02:21:29.946Z,987.69
2017-12-12T02:22:39.161Z,987.74
2017-12-12T02:23:48.363Z,987.77
2017-12-12T02:24:57.599Z,987.84
2017-12-12T02:26:07.066Z,987.92
2017-12-12T02:27:16.013Z,987.95
2017-12-12T02:28:24.962Z,988.01
2017-12-12T02:29:33.639Z,988.08
2017-12-12T02:30:42.853Z,988.09
2017-12-12T02:31:52.644Z,988.2
2017-12-12T02:33:01.876Z,988.28
2017-12-12T02:34:11.091Z,988.33
2017-12-12T02:35:20.310Z,988.38
2017-12-12T02:36:29.530Z,988.37
2017-12-12T02:37:38.482Z,988.49
2017-12-12T02:38:47.163Z,988.53
2017-12-12T02:39:56.883Z,988.62
2017-12-12T02:41:05.828Z,988.66
2017-12-12T02:42:14.537Z,988.68
2017-12-12T02:43:24.021Z,988.71
2017-12-12T02:44:33.231Z,988.71
2017-12-12T02:45:42.461Z,988.74
2017-12-12T02:46:51.956Z,988.79
2017-12-12T02:48:00.928Z,988.84
2017-12-12T02:49:10.402Z,988.89
2017-12-12T02:50:19.616Z,989.03
2017-12-12T02:51:28.551Z,989.06
2017-12-12T02:52:37.494Z,989.05
2017-12-12T02:53:46.176Z,989.13
2017-12-12T02:54:55.648Z,989.12
2017-12-12T02:56:05.834Z,989.22
2017-12-12T02:57:15.042Z,989.21
2017-12-12T02:58:24.002Z,989.27
2017-12-12T02:59:32.947Z,989.34
2017-12-12T03:00:42.424Z,989.35
2017-12-12T03:01:51.364Z,989.38
2017-12-12T03:03:00.596Z,989.5
2017-12-12T03:04:09.822Z,989.56
2017-12-12T03:05:18.780Z,989.62
2017-12-12T03:06:27.476Z,989.68
2017-12-12T03:07:36.952Z,989.65
2017-12-12T03:08:46.702Z,989.71
2017-12-12T03:09:55.938Z,989.73
2017-12-12T03:11:05.166Z,989.75
2017-12-12T03:12:14.121Z,989.79
2017-12-12T03:13:23.776Z,989.8
2017-12-12T03:14:32.718Z,989.89
2017-12-12T03:15:42.183Z,989.91
2017-12-12T03:16:50.879Z,989.93
2017-12-12T03:18:00.114Z,990.02
2017-12-12T03:19:09.066Z,990.02
2017-12-12T03:20:18.306Z,990
2017-12-12T03:21:27.250Z,990.09
2017-12-12T03:22:36.515Z,990.13
2017-12-12T03:23:45.214Z,990.2
2017-12-12T03:24:54.169Z,990.27
2017-12-12T03:26:03.120Z,990.27
2017-12-12T03:27:12.315Z,990.35
2017-12-12T03:28:21.798Z,990.45
2017-12-12T03:29:30.745Z,990.51
2017-12-12T03:30:39.708Z,990.46
2017-12-12T03:31:49.195Z,990.56
2017-12-12T03:32:58.425Z,990.6
2017-12-12T03:34:07.912Z,990.6
2017-12-12T03:35:17.131Z,990.68
2017-12-12T03:36:26.082Z,990.78
2017-12-12T03:37:36.262Z,990.8
2017-12-12T03:38:45.747Z,990.84
2017-12-12T03:39:54.956Z,990.9
2017-12-12T03:41:04.161Z,990.84
2017-12-12T03:42:13.112Z,990.95
2017-12-12T03:43:22.319Z,991.04
2017-12-12T03:44:31.521Z,991.11
2017-12-12T03:45:40.465Z,991.1
2017-12-12T03:46:49.160Z,991.19
2017-12-12T03:47:58.128Z,991.22
2017-12-12T03:49:07.088Z,991.33
2017-12-12T03:50:15.773Z,991.34
2017-12-12T03:51:24.718Z,991.43
2017-12-12T03:52:33.418Z,991.49
2017-12-12T03:53:42.622Z,991.57
2017-12-12T03:54:51.828Z,991.6
2017-12-12T03:56:00.776Z,991.6
2017-12-12T03:57:09.976Z,991.57
2017-12-12T03:58:19.189Z,991.63
2017-12-12T03:59:28.411Z,991.66
2017-12-12T04:00:37.385Z,991.72
2017-12-12T04:01:46.596Z,991.68
2017-12-12T04:02:55.806Z,991.77
2017-12-12T04:04:04.758Z,991.8
2017-12-12T04:05:14.491Z,991.84
2017-12-12T04:06:23.701Z,991.83
2017-12-12T04:07:32.662Z,991.9
2017-12-12T04:08:41.898Z,991.97
2017-12-12T04:09:50.857Z,991.99
2017-12-12T04:11:00.354Z,992.03
2017-12-12T04:12:10.128Z,992.04
2017-12-12T04:13:18.800Z,992.05
2017-12-12T04:14:28.067Z,992.09
2017-12-12T04:15:37.290Z,992.18
2017-12-12T04:16:46.509Z,992.19
2017-12-12T04:17:55.459Z,992.23
2017-12-12T04:19:05.190Z,992.33
2017-12-12T04:20:14.392Z,992.35
2017-12-12T04:21:23.348Z,992.41
2017-12-12T04:22:32.589Z,992.43
2017-12-12T04:23:41.808Z,992.46
2017-12-12T04:24:51.019Z,992.48
2017-12-12T04:25:59.978Z,992.52
2017-12-12T04:27:09.459Z,992.53
2017-12-12T04:28:18.671Z,992.63
2017-12-12T04:29:27.891Z,992.68
2017-12-12T04:30:37.131Z,992.68
2017-12-12T04:31:46.356Z,992.8
2017-12-12T04:32:55.318Z,992.89
2017-12-12T04:34:04.607Z,992.96
2017-12-12T04:35:13.817Z,993
2017-12-12T04:36:22.526Z,993.02
2017-12-12T04:37:31.758Z,993.06
2017-12-12T04:38:41.241Z,993.07
2017-12-12T04:39:50.206Z,993.08
2017-12-12T04:40:59.427Z,993.14
2017-12-12T04:42:09.175Z,993.24
2017-12-12T04:43:18.622Z,993.27
2017-12-12T04:44:27.563Z,993.37
2017-12-12T04:45:36.770Z,993.38
2017-12-12T04:46:45.987Z,993.48
2017-12-12T04:47:54.926Z,993.51
2017-12-12T04:49:04.386Z,993.58
2017-12-12T04:50:13.327Z,993.61
2017-12-12T04:51:23.080Z,993.64
2017-12-12T04:52:32.398Z,993.66
2017-12-12T04:53:41.359Z,993.76
2017-12-12T04:54:50.834Z,993.75
2017-12-12T04:56:00.305Z,993.82
2017-12-12T04:57:10.053Z,993.91
2017-12-12T04:58:19.010Z,993.93
2017-12-12T04:59:28.012Z,994.02
2017-12-12T05:00:36.699Z,994.06
2017-12-12T05:01:46.266Z,994.11
2017-12-12T05:02:55.491Z,994.19
2017-12-12T05:04:04.447Z,994.21
2017-12-12T05:05:13.386Z,994.28
2017-12-12T05:06:22.854Z,994.32
2017-12-12T05:07:32.064Z,994.35
2017-12-12T05:08:41.270Z,994.31
2017-12-12T05:09:50.203Z,994.4
2017-12-12T05:10:59.415Z,994.41
2017-12-12T05:12:08.889Z,994.46
2017-12-12T05:13:18.112Z,994.45
2017-12-12T05:14:27.319Z,994.47
2017-12-12T05:15:36.534Z,994.52
2017-12-12T05:16:45.483Z,994.53
2017-12-12T05:17:54.429Z,994.6
2017-12-12T05:19:03.662Z,994.68
2017-12-12T05:20:12.612Z,994.68
2017-12-12T05:21:21.602Z,994.67
2017-12-12T05:22:31.093Z,994.73
2017-12-12T05:23:40.152Z,994.79
2017-12-12T05:24:49.369Z,994.84
2017-12-12T05:25:58.310Z,994.83
2017-12-12T05:27:07.587Z,994.91
2017-12-12T05:28:16.613Z,994.86
2017-12-12T05:29:26.385Z,994.92
2017-12-12T05:30:35.870Z,995.03
2017-12-12T05:31:45.346Z,995.02
2017-12-12T05:32:54.827Z,995.04
2017-12-12T05:34:03.795Z,995.13
2017-12-12T05:35:13.277Z,995.15
2017-12-12T05:36:22.488Z,995.24
2017-12-12T05:37:31.766Z,995.25
2017-12-12T05:38:40.721Z,995.24
2017-12-12T05:39:49.658Z,995.28
2017-12-12T05:40:58.351Z,995.33
2017-12-12T05:42:07.554Z,995.29
2017-12-12T05:43:16.505Z,995.4
2017-12-12T05:44:25.962Z,995.5
2017-12-12T05:45:35.695Z,995.51
2017-12-12T05:46:44.641Z,995.57
2017-12-12T05:47:54.117Z,995.54
2017-12-12T05:49:03.083Z,995.6
2017-12-12T05:50:12.293Z,995.6
2017-12-12T05:51:21.766Z,995.6
2017-12-12T05:52:31.007Z,995.67
2017-12-12T05:53:40.233Z,995.7
2017-12-12T05:54:49.177Z,995.74
2017-12-12T05:55:58.410Z,995.82
2017-12-12T05:57:07.367Z,995.8
2017-12-12T05:58:16.324Z,995.8
2017-12-12T05:59:25.534Z,995.84
2017-12-12T06:00:34.754Z,995.89
2017-12-12T06:01:43.968Z,995.89
2017-12-12T06:02:52.678Z,995.97
2017-12-12T06:04:01.908Z,995.95
2017-12-12T06:05:11.127Z,995.96
2017-12-12T06:06:20.116Z,995.98
2017-12-12T06:07:29.150Z,995.95
2017-12-12T06:08:38.373Z,996.05
2017-12-12T06:09:47.058Z,996.12
2017-12-12T06:10:56.576Z,996.08
2017-12-12T06:12:05.276Z,996.15
2017-12-12T06:13:14.242Z,996.2
2017-12-12T06:14:23.209Z,996.18
2017-12-12T06:15:32.457Z,996.26
2017-12-12T06:16:41.679Z,996.29
2017-12-12T06:17:51.617Z,996.25
2017-12-12T06:19:00.850Z,996.39
2017-12-12T06:20:10.055Z,996.4
2017-12-12T06:21:19.537Z,996.54
2017-12-12T06:22:28.765Z,996.59
2017-12-12T06:23:37.964Z,996.62
2017-12-12T06:24:47.246Z,996.67
2017-12-12T06:28:29.091Z,996.79
2017-12-12T06:32:10.402Z,996.92
2017-12-12T06:33:19.357Z,997.02
2017-12-12T06:34:28.870Z,997
2017-12-12T06:38:11.098Z,997.06
2017-12-12T06:41:52.715Z,997.18
2017-12-12T06:43:01.936Z,997.13
2017-12-12T06:44:11.432Z,997.18
2017-12-12T06:45:20.407Z,997.18
2017-12-12T06:46:29.653Z,997.26
2017-12-12T06:47:38.876Z,997.23
2017-12-12T06:48:47.855Z,997.28
2017-12-12T06:49:56.542Z,997.3
2017-12-12T06:51:06.306Z,997.29
2017-12-12T06:52:15.517Z,997.4
2017-12-12T06:53:24.479Z,997.5
2017-12-12T06:54:33.963Z,997.43
2017-12-12T06:55:43.307Z,997.4
2017-12-12T06:56:52.519Z,997.44
2017-12-12T06:58:02.001Z,997.5
2017-12-12T06:59:11.213Z,997.5
2017-12-12T07:00:20.445Z,997.57
2017-12-12T07:01:29.424Z,997.64
2017-12-12T07:02:38.638Z,997.5
2017-12-12T07:03:48.115Z,997.61
2017-12-12T07:04:57.352Z,997.69
2017-12-12T07:06:06.594Z,997.7
2017-12-12T07:07:15.287Z,997.68
2017-12-12T07:08:24.531Z,997.8
2017-12-12T07:09:33.513Z,997.83
2017-12-12T07:10:42.473Z,997.89
2017-12-12T07:11:51.737Z,997.99
2017-12-12T07:13:00.958Z,998.08
2017-12-12T07:14:10.446Z,998.04
2017-12-12T07:15:19.405Z,998.11
2017-12-12T07:16:28.358Z,998.12
2017-12-12T07:17:37.584Z,998.19
2017-12-12T07:18:46.284Z,998.17
2017-12-12T07:19:55.256Z,998.27
2017-12-12T07:21:04.737Z,998.22
2017-12-12T07:22:13.699Z,998.29
2017-12-12T07:23:22.423Z,998.3
2017-12-12T07:24:31.374Z,998.37
2017-12-12T07:25:40.321Z,998.45
2017-12-12T07:26:49.543Z,998.38
2017-12-12T07:27:59.080Z,998.47
2017-12-12T07:29:08.571Z,998.47
2017-12-12T07:30:17.791Z,998.46
2017-12-12T07:31:27.016Z,998.52
2017-12-12T07:32:36.242Z,998.59
2017-12-12T07:33:44.932Z,998.64
2017-12-12T07:34:54.167Z,998.63
2017-12-12T07:36:03.121Z,998.67
2017-12-12T07:37:12.367Z,998.71
2017-12-12T07:38:21.870Z,998.73
2017-12-12T07:39:30.573Z,998.79
2017-12-12T07:40:39.557Z,998.84
2017-12-12T07:41:48.516Z,998.87
2017-12-12T07:42:57.225Z,998.9
2017-12-12T07:44:06.457Z,998.89
2017-12-12T07:45:15.418Z,998.94
2017-12-12T07:46:24.384Z,999.01
2017-12-12T07:47:33.609Z,999.05
2017-12-12T07:48:42.845Z,999.08
2017-12-12T07:49:52.073Z,999.1
2017-12-12T07:51:01.042Z,999.09
2017-12-12T07:52:09.763Z,999.14
2017-12-12T07:53:18.983Z,999.15
2017-12-12T07:54:27.975Z,999.13
2017-12-12T07:55:37.461Z,999.14
2017-12-12T07:56:46.448Z,999.17
2017-12-12T07:57:55.138Z,999.12
2017-12-12T07:59:04.361Z,999.11
2017-12-12T08:00:13.605Z,999.11
2017-12-12T08:01:23.103Z,999.16
2017-12-12T08:02:32.077Z,999.18
2017-12-12T08:03:41.847Z,999.21
2017-12-12T08:04:51.072Z,999.26
2017-12-12T08:06:00.055Z,999.27
2017-12-12T08:07:09.280Z,999.31
2017-12-12T08:08:18.547Z,999.37
2017-12-12T08:09:27.248Z,999.4
2017-12-12T08:10:36.736Z,999.41
2017-12-12T08:11:45.965Z,999.46
2017-12-12T08:12:54.661Z,999.52
2017-12-12T08:14:03.950Z,999.48
2017-12-12T08:15:13.709Z,999.5
2017-12-12T08:16:22.762Z,999.55
2017-12-12T08:17:31.968Z,999.6
2017-12-12T08:18:40.661Z,999.62
2017-12-12T08:19:49.639Z,999.69
2017-12-12T08:20:58.612Z,999.82
2017-12-12T08:22:07.850Z,999.85
2017-12-12T08:23:16.818Z,999.84
2017-12-12T08:24:25.522Z,999.92
2017-12-12T08:25:34.220Z,999.96
2017-12-12T08:26:43.723Z,999.99
2017-12-12T08:27:52.812Z,1000
2017-12-12T08:29:02.050Z,1000.08
2017-12-12T08:30:11.544Z,1000.17
2017-12-12T08:31:20.781Z,1000.17
2017-12-12T08:32:29.771Z,1000.11
2017-12-12T08:33:38.791Z,1000.21
2017-12-12T08:34:48.059Z,1000.21
2017-12-12T08:35:57.574Z,1000.26
2017-12-12T08:37:07.102Z,1000.29
2017-12-12T08:38:16.365Z,1000.29
2017-12-12T08:39:25.057Z,1000.28
2017-12-12T08:40:34.318Z,1000.3
2017-12-12T08:41:44.072Z,1000.29
2017-12-12T08:42:52.784Z,1000.35
2017-12-12T08:44:01.810Z,1000.39
2017-12-12T08:45:11.582Z,1000.48
2017-12-12T08:46:21.072Z,1000.43
2017-12-12T08:47:30.054Z,1000.5
2017-12-12T08:48:39.296Z,1000.59
2017-12-12T08:49:48.260Z,1000.6
2017-12-12T08:50:57.275Z,1000.64
2017-12-12T08:52:05.998Z,1000.71
2017-12-12T08:53:14.700Z,1000.7
2017-12-12T08:54:24.537Z,1000.64
2017-12-12T08:55:33.511Z,1000.68
2017-12-12T08:56:42.496Z,1000.74
2017-12-12T08:57:51.768Z,1000.79
2017-12-12T08:59:00.987Z,1000.77
2017-12-12T09:00:09.697Z,1000.84
2017-12-12T09:01:18.428Z,1000.84
2017-12-12T09:02:28.198Z,1000.86
2017-12-12T09:03:37.218Z,1000.94
2017-12-12T09:04:46.707Z,1000.88
2017-12-12T09:05:55.951Z,1000.97
2017-12-12T09:07:05.188Z,1000.98
2017-12-12T09:08:14.694Z,1001.06
2017-12-12T09:09:23.920Z,1001.02
2017-12-12T09:10:32.877Z,1001.09
2017-12-12T09:11:41.576Z,1001.05
2017-12-12T09:12:51.348Z,1001.11
2017-12-12T09:14:00.619Z,1001.14
2017-12-12T09:15:09.842Z,1001.18
2017-12-12T09:16:19.323Z,1001.15
2017-12-12T09:17:28.027Z,1001.22
2017-12-12T09:18:36.747Z,1001.22
2017-12-12T09:19:45.959Z,1001.27
2017-12-12T09:20:55.502Z,1001.34
2017-12-12T09:22:04.458Z,1001.39
2017-12-12T09:23:13.263Z,1001.35
2017-12-12T09:24:22.742Z,1001.43
2017-12-12T09:25:31.706Z,1001.46
2017-12-12T09:26:41.212Z,1001.47
2017-12-12T09:27:50.198Z,1001.49
2017-12-12T09:28:59.688Z,1001.53
2017-12-12T09:30:09.167Z,1001.52
2017-12-12T09:31:18.402Z,1001.55
2017-12-12T09:32:27.621Z,1001.57
2017-12-12T09:33:36.883Z,1001.62
2017-12-12T09:34:46.134Z,1001.64
2017-12-12T09:35:55.119Z,1001.69
2017-12-12T09:37:04.081Z,1001.73
2017-12-12T09:38:13.052Z,1001.84
2017-12-12T09:39:21.750Z,1001.89
2017-12-12T09:40:31.237Z,1001.88
2017-12-12T09:41:41.004Z,1001.9
2017-12-12T09:42:49.979Z,1001.96
2017-12-12T09:43:58.938Z,1001.97
2017-12-12T09:45:08.422Z,1002.01
2017-12-12T09:46:17.393Z,1002.02
2017-12-12T09:47:26.351Z,1001.98
2017-12-12T09:48:35.078Z,1002.01
2017-12-12T09:49:44.077Z,1002.02
2017-12-12T09:50:53.333Z,1002.07
2017-12-12T09:52:02.295Z,1002.01
2017-12-12T09:53:12.056Z,1001.99
2017-12-12T09:54:21.039Z,1002.14
2017-12-12T09:55:29.990Z,1002.17
2017-12-12T09:56:39.513Z,1002.21
2017-12-12T09:57:48.734Z,1002.2
2017-12-12T09:58:57.445Z,1002.18
2017-12-12T10:00:06.988Z,1002.25
2017-12-12T10:01:16.199Z,1002.24
2017-12-12T10:02:25.184Z,1002.23
2017-12-12T10:03:34.175Z,1002.25
2017-12-12T10:04:43.418Z,1002.23
2017-12-12T10:05:52.374Z,1002.21
2017-12-12T10:07:01.336Z,1002.29
2017-12-12T10:08:10.299Z,1002.3
2017-12-12T10:09:19.530Z,1002.27
2017-12-12T10:10:29.032Z,1002.38
2017-12-12T10:11:38.255Z,1002.4
2017-12-12T10:12:47.468Z,1002.4
2017-12-12T10:13:56.426Z,1002.42
2017-12-12T10:15:05.920Z,1002.39
2017-12-12T10:16:15.130Z,1002.41
2017-12-12T10:17:24.361Z,1002.43
2017-12-12T10:18:34.122Z,1002.43
2017-12-12T10:19:43.075Z,1002.47
2017-12-12T10:20:52.051Z,1002.47
2017-12-12T10:22:01.273Z,1002.48
2017-12-12T10:23:10.239Z,1002.47
2017-12-12T10:24:19.721Z,1002.49
2017-12-12T10:25:28.697Z,1002.46
2017-12-12T10:26:38.180Z,1002.54
2017-12-12T10:27:47.398Z,1002.5
2017-12-12T10:28:56.900Z,1002.53
2017-12-12T10:30:06.398Z,1002.55
2017-12-12T10:31:15.353Z,1002.6
2017-12-12T10:32:24.589Z,1002.56
2017-12-12T10:33:33.304Z,1002.61
2017-12-12T10:34:42.834Z,1002.59
2017-12-12T10:35:51.816Z,1002.6
2017-12-12T10:37:00.506Z,1002.57
2017-12-12T10:38:09.733Z,1002.59
2017-12-12T10:39:18.750Z,1002.58
2017-12-12T10:40:27.465Z,1002.63
2017-12-12T10:41:36.753Z,1002.6
2017-12-12T10:42:45.717Z,1002.59
2017-12-12T10:43:54.964Z,1002.61
2017-12-12T10:45:04.184Z,1002.7
2017-12-12T10:46:13.385Z,1002.67
2017-12-12T10:47:22.343Z,1002.69
2017-12-12T10:48:32.125Z,1002.73
2017-12-12T10:49:41.186Z,1002.81
2017-12-12T10:50:50.183Z,1002.79
2017-12-12T10:51:59.730Z,1002.78
2017-12-12T10:53:08.709Z,1002.83
2017-12-12T10:54:17.666Z,1002.84
2017-12-12T10:55:26.905Z,1002.87
2017-12-12T10:56:35.601Z,1002.86
2017-12-12T10:57:44.326Z,1002.88
2017-12-12T10:58:53.528Z,1002.89
2017-12-12T11:00:02.771Z,1002.87
2017-12-12T11:01:12.273Z,1002.95
2017-12-12T11:02:22.033Z,1002.97
2017-12-12T11:03:30.737Z,1002.97
2017-12-12T11:04:40.497Z,1002.99
2017-12-12T11:05:49.705Z,1002.97
2017-12-12T11:06:58.420Z,1002.98
2017-12-12T11:08:07.376Z,1002.98
2017-12-12T11:09:16.106Z,1002.97
2017-12-12T11:10:25.062Z,1003.02
2017-12-12T11:11:33.773Z,1003.03
2017-12-12T11:12:43.261Z,1003.01
2017-12-12T11:13:52.752Z,1003
2017-12-12T11:15:02.096Z,1003.02
2017-12-12T11:16:11.585Z,1003
2017-12-12T11:17:20.799Z,1003.03
2017-12-12T11:18:29.765Z,1003.06
2017-12-12T11:19:39.500Z,1003.05
2017-12-12T11:20:49.279Z,1003.05
2017-12-12T11:21:58.506Z,1003.07
2017-12-12T11:23:07.755Z,1003.11
2017-12-12T11:24:16.732Z,1003.09
2017-12-12T11:25:25.713Z,1003.07
2017-12-12T11:26:34.405Z,1003.13
2017-12-12T11:27:44.346Z,1003.19
2017-12-12T11:28:53.582Z,1003.18
2017-12-12T11:30:02.571Z,1003.25
2017-12-12T11:31:11.827Z,1003.21
2017-12-12T11:32:21.580Z,1003.21
2017-12-12T11:33:30.803Z,1003.27
2017-12-12T11:34:40.308Z,1003.29
2017-12-12T11:35:49.808Z,1003.28
2017-12-12T11:36:59.334Z,1003.34
2017-12-12T11:38:08.553Z,1003.33
2017-12-12T11:39:17.518Z,1003.37
2017-12-12T11:40:26.242Z,1003.44
2017-12-12T11:41:35.465Z,1003.41
2017-12-12T11:42:44.682Z,1003.41
2017-12-12T11:43:53.937Z,1003.47
2017-12-12T11:45:03.185Z,1003.46
2017-12-12T11:46:12.400Z,1003.48
2017-12-12T11:47:21.913Z,1003.51
2017-12-12T11:48:31.138Z,1003.52
2017-12-12T11:49:40.913Z,1003.56
2017-12-12T11:50:50.129Z,1003.56
2017-12-12T11:51:59.459Z,1003.56
2017-12-12T11:53:08.418Z,1003.55
2017-12-12T11:54:17.467Z,1003.56
2017-12-12T11:55:26.165Z,1003.57
2017-12-12T11:56:35.405Z,1003.63
2017-12-12T11:57:44.916Z,1003.63
2017-12-12T11:58:54.122Z,1003.62
2017-12-12T12:00:03.332Z,1003.69
2017-12-12T12:01:12.546Z,1003.65
2017-12-12T12:02:21.557Z,1003.75
2017-12-12T12:03:31.045Z,1003.68
2017-12-12T12:04:40.279Z,1003.79
2017-12-12T12:05:49.771Z,1003.72
2017-12-12T12:06:59.519Z,1003.77
2017-12-12T12:08:08.791Z,1003.74
2017-12-12T12:09:17.753Z,1003.81
2017-12-12T12:10:27.035Z,1003.84
2017-12-12T12:11:36.008Z,1003.87
2017-12-12T12:12:45.246Z,1003.84
2017-12-12T12:13:54.268Z,1003.95
2017-12-12T12:15:03.271Z,1003.9
2017-12-12T12:16:12.279Z,1003.96
2017-12-12T12:17:21.260Z,1003.94
2017-12-12T12:18:30.225Z,1003.94
2017-12-12T12:19:39.193Z,1003.97
2017-12-12T12:20:48.516Z,1003.94
2017-12-12T12:21:57.491Z,1004.01
2017-12-12T12:23:07.392Z,1003.93
2017-12-12T12:24:16.601Z,1003.99
2017-12-12T12:25:25.564Z,1004
2017-12-12T12:26:34.783Z,1003.95
2017-12-12T12:27:43.749Z,1003.94
2017-12-12T12:28:52.968Z,1003.96
2017-12-12T12:30:01.918Z,1003.96
2017-12-12T12:31:11.425Z,1003.94
2017-12-12T12:32:20.375Z,1003.97
2017-12-12T12:33:29.071Z,1003.97
2017-12-12T12:34:38.281Z,1003.98
2017-12-12T12:35:47.249Z,1003.97
2017-12-12T12:36:56.244Z,1003.97
2017-12-12T12:38:04.974Z,1003.96
2017-12-12T12:39:14.189Z,1003.98
2017-12-12T12:40:23.674Z,1003.98
2017-12-12T12:41:32.892Z,1004.03
2017-12-12T12:42:41.869Z,1004.05
2017-12-12T12:43:51.128Z,1003.99
2017-12-12T12:45:00.073Z,1004.06
2017-12-12T12:46:09.043Z,1004.1
2017-12-12T12:47:17.996Z,1004.11
2017-12-12T12:48:27.214Z,1004.2
2017-12-12T12:49:36.425Z,1004.19
2017-12-12T12:50:45.974Z,1004.24
2017-12-12T12:51:55.188Z,1004.26
2017-12-12T12:53:03.887Z,1004.23
2017-12-12T12:54:13.202Z,1004.21
2017-12-12T12:55:22.954Z,1004.21
2017-12-12T12:56:32.722Z,1004.3
2017-12-12T12:57:41.939Z,1004.31
2017-12-12T12:58:51.442Z,1004.31
2017-12-12T13:00:00.430Z,1004.35
2017-12-12T13:01:09.655Z,1004.38
2017-12-12T13:02:18.862Z,1004.49
2017-12-12T13:03:28.368Z,1004.45
2017-12-12T13:04:37.331Z,1004.5
2017-12-12T13:05:46.853Z,1004.49
2017-12-12T13:06:56.333Z,1004.55
2017-12-12T13:08:05.545Z,1004.55
2017-12-12T13:09:15.032Z,1004.57
2017-12-12T13:10:24.243Z,1004.58
2017-12-12T13:11:33.217Z,1004.6
2017-12-12T13:12:42.442Z,1004.61
2017-12-12T13:13:51.424Z,1004.64
2017-12-12T13:15:00.646Z,1004.64
2017-12-12T13:16:09.611Z,1004.64
2017-12-12T13:17:19.096Z,1004.64
2017-12-12T13:18:27.802Z,1004.69
2017-12-12T13:19:36.507Z,1004.62
2017-12-12T13:20:45.828Z,1004.68
2017-12-12T13:21:55.042Z,1004.68
2017-12-12T13:23:04.016Z,1004.69
2017-12-12T13:24:12.979Z,1004.66
2017-12-12T13:25:22.451Z,1004.72
2017-12-12T13:26:31.415Z,1004.75
2017-12-12T13:27:41.169Z,1004.73
2017-12-12T13:28:50.127Z,1004.79
2017-12-12T13:29:59.336Z,1004.82
2017-12-12T13:31:08.300Z,1004.84
2017-12-12T13:32:17.589Z,1004.8
2017-12-12T13:33:27.125Z,1004.83
2017-12-12T13:34:36.388Z,1004.82
2017-12-12T13:35:45.640Z,1004.81
2017-12-12T13:36:55.134Z,1004.76
2017-12-12T13:38:04.344Z,1004.83
2017-12-12T13:39:13.572Z,1004.9
2017-12-12T13:40:22.661Z,1004.93
2017-12-12T13:41:31.941Z,1004.92
2017-12-12T13:42:41.182Z,1004.94
2017-12-12T13:43:50.156Z,1005.01
2017-12-12T13:44:59.141Z,1005.01
2017-12-12T13:46:08.878Z,1005.05
2017-12-12T13:47:17.582Z,1005.07
2017-12-12T13:48:26.825Z,1005.1
2017-12-12T13:49:36.052Z,1005.1
2017-12-12T13:50:44.774Z,1005.1
2017-12-12T13:51:53.519Z,1005.12
2017-12-12T13:53:02.426Z,1005.16
2017-12-12T13:54:11.654Z,1005.14
2017-12-12T13:55:20.666Z,1005.19
2017-12-12T13:56:29.906Z,1005.16
2017-12-12T13:57:39.132Z,1005.2
2017-12-12T13:58:48.361Z,1005.23
2017-12-12T13:59:57.854Z,1005.25
2017-12-12T14:01:06.531Z,1005.25
2017-12-12T14:02:15.753Z,1005.35
2017-12-12T14:03:25.245Z,1005.34
2017-12-12T14:04:34.718Z,1005.37
2017-12-12T14:05:43.424Z,1005.37
2017-12-12T14:06:52.648Z,1005.45
2017-12-12T14:08:01.624Z,1005.46
2017-12-12T14:09:10.876Z,1005.46
2017-12-12T14:10:19.836Z,1005.5
2017-12-12T14:11:28.788Z,1005.51
2017-12-12T14:12:38.002Z,1005.56
2017-12-12T14:13:46.715Z,1005.53
2017-12-12T14:14:55.419Z,1005.55
2017-12-12T14:16:04.107Z,1005.59
2017-12-12T14:17:13.711Z,1005.6
2017-12-12T14:18:22.975Z,1005.64
2017-12-12T14:19:31.932Z,1005.64
2017-12-12T14:20:41.424Z,1005.64
2017-12-12T14:21:50.699Z,1005.68
2017-12-12T14:22:59.933Z,1005.71
2017-12-12T14:24:09.423Z,1005.76
2017-12-12T14:25:18.930Z,1005.82